createdAt,value
2022-12-04T00:00:19.256Z,4.60
2022-12-04T00:03:22.144Z,4.60
2022-12-04T00:06:25.231Z,4.59
2022-12-04T00:09:28.122Z,4.55
2022-12-04T00:12:30.619Z,4.58
2022-12-04T00:15:33.376Z,4.51
2022-12-04T00:18:36.647Z,4.62
2022-12-04T00:21:39.388Z,4.59
2022-12-04T00:24:42.107Z,4.50
2022-12-04T00:27:44.941Z,4.57
2022-12-04T00:30:47.473Z,4.56
2022-12-04T00:33:51.037Z,4.56
2022-12-04T00:36:53.799Z,4.57
2022-12-04T00:39:56.669Z,4.54
2022-12-04T00:42:59.406Z,4.63
2022-12-04T00:46:02.315Z,4.52
2022-12-04T00:49:04.870Z,4.50
2022-12-04T00:52:07.722Z,4.47
2022-12-04T00:55:10.377Z,4.46
2022-12-04T00:58:13.821Z,4.47
2022-12-04T01:01:19.172Z,4.41
2022-12-04T01:04:22.190Z,4.38
2022-12-04T01:07:24.914Z,4.37
2022-12-04T01:10:27.923Z,4.33
2022-12-04T01:13:30.399Z,4.31
2022-12-04T01:16:37.918Z,4.28
2022-12-04T01:19:40.682Z,4.26
2022-12-04T01:22:43.493Z,4.23
2022-12-04T01:25:53.873Z,4.24
2022-12-04T01:28:56.645Z,4.23
2022-12-04T01:31:59.121Z,4.21
2022-12-04T01:35:02.062Z,4.21
2022-12-04T01:38:04.544Z,4.21
2022-12-04T01:41:09.402Z,4.23
2022-12-04T01:44:23.247Z,4.18
2022-12-04T01:47:26.337Z,4.16
2022-12-04T01:50:29.474Z,4.16
2022-12-04T01:53:33.907Z,4.14
2022-12-04T01:56:43.795Z,4.15
2022-12-04T01:59:58.655Z,4.13
2022-12-04T02:03:01.767Z,4.13
2022-12-04T02:06:05.307Z,4.17
2022-12-04T02:09:07.995Z,4.13
2022-12-04T02:12:13.423Z,4.12
2022-12-04T02:15:36.067Z,4.21
2022-12-04T02:18:46.393Z,4.10
2022-12-04T02:21:49.722Z,4.14
2022-12-04T02:25:21.470Z,4.10
2022-12-04T02:28:39.146Z,4.13
2022-12-04T02:31:55.930Z,4.15
2022-12-04T02:35:02.400Z,4.14
2022-12-04T02:38:33.668Z,4.12
2022-12-04T02:41:40.087Z,4.18
2022-12-04T02:44:49.945Z,4.18
2022-12-04T02:47:53.347Z,4.18
2022-12-04T02:50:58.538Z,4.18
2022-12-04T02:54:25.026Z,4.20
2022-12-04T02:57:30.281Z,4.19
2022-12-04T03:00:33.354Z,4.25
2022-12-04T03:03:37.571Z,4.20
2022-12-04T03:06:44.510Z,4.21
2022-12-04T03:09:50.721Z,4.17
2022-12-04T03:13:09.623Z,4.13
2022-12-04T03:16:25.696Z,4.12
2022-12-04T03:19:37.830Z,4.17
2022-12-04T03:22:42.645Z,4.13
2022-12-04T03:26:00.901Z,4.11
2022-12-04T03:29:22.482Z,4.06
2022-12-04T03:33:04.010Z,4.04
2022-12-04T03:36:09.738Z,4.08
2022-12-04T03:39:19.422Z,4.06
2022-12-04T03:42:25.882Z,4.05
2022-12-04T03:45:43.387Z,4.12
2022-12-04T03:48:57.321Z,4.03
2022-12-04T03:52:33.759Z,3.98
2022-12-04T03:55:50.877Z,3.99
2022-12-04T03:58:58.157Z,3.95
2022-12-04T04:02:02.289Z,3.94
2022-12-04T04:05:08.233Z,3.91
2022-12-04T04:08:27.213Z,3.92
2022-12-04T04:11:46.523Z,3.90
2022-12-04T04:15:14.424Z,3.92
2022-12-04T04:18:36.231Z,3.93
2022-12-04T04:21:58.637Z,3.92
2022-12-04T04:25:08.172Z,3.87
2022-12-04T04:28:30.010Z,3.89
2022-12-04T04:31:39.635Z,3.83
2022-12-04T04:34:50.540Z,3.74
2022-12-04T04:38:05.374Z,3.72
2022-12-04T04:41:27.408Z,3.68
2022-12-04T04:45:05.999Z,3.70
2022-12-04T04:48:09.661Z,3.65
2022-12-04T04:51:13.028Z,3.63
2022-12-04T04:54:17.356Z,3.64
2022-12-04T04:57:31.586Z,3.64
2022-12-04T05:00:34.239Z,3.64
2022-12-04T05:03:37.234Z,3.67
2022-12-04T05:06:39.880Z,3.65
2022-12-04T05:09:42.604Z,3.70
2022-12-04T05:12:45.177Z,3.69
2022-12-04T05:16:02.600Z,3.61
2022-12-04T05:19:23.842Z,3.61
2022-12-04T05:22:29.423Z,3.62
2022-12-04T05:25:31.863Z,3.67
2022-12-04T05:28:34.660Z,3.63
2022-12-04T05:31:37.206Z,3.63
2022-12-04T05:34:40.051Z,3.70
2022-12-04T05:37:42.486Z,3.72
2022-12-04T05:40:45.289Z,3.59
2022-12-04T05:43:47.757Z,3.64
2022-12-04T05:46:50.501Z,3.54
2022-12-04T05:49:53.498Z,3.56
2022-12-04T05:52:56.470Z,3.50
2022-12-04T05:56:00.388Z,3.44
2022-12-04T05:59:03.447Z,3.46
2022-12-04T06:02:05.959Z,3.43
2022-12-04T06:05:08.911Z,3.46
2022-12-04T06:08:11.521Z,3.46
2022-12-04T06:11:19.695Z,3.51
2022-12-04T06:14:22.144Z,3.54
2022-12-04T06:17:25.001Z,3.48
2022-12-04T06:20:27.532Z,3.46
2022-12-04T06:23:30.566Z,3.46
2022-12-04T06:26:33.142Z,3.52
2022-12-04T06:29:36.098Z,3.50
2022-12-04T06:32:38.621Z,3.51
2022-12-04T06:35:41.453Z,3.54
2022-12-04T06:38:44.412Z,3.51
2022-12-04T06:41:50.051Z,3.53
2022-12-04T06:44:52.626Z,3.49
2022-12-04T06:47:55.385Z,3.48
2022-12-04T06:50:59.865Z,3.47
2022-12-04T06:54:03.674Z,3.41
2022-12-04T06:57:06.086Z,3.43
2022-12-04T07:00:09.399Z,3.33
2022-12-04T07:03:11.907Z,3.30
2022-12-04T07:06:17.544Z,3.45
2022-12-04T07:09:20.377Z,3.35
2022-12-04T07:12:23.185Z,3.41
2022-12-04T07:15:25.658Z,3.38
2022-12-04T07:18:29.777Z,3.39
2022-12-04T07:21:34.588Z,3.38
2022-12-04T07:24:37.748Z,3.41
2022-12-04T07:27:40.226Z,3.41
2022-12-04T07:30:43.068Z,3.38
2022-12-04T07:33:46.413Z,3.43
2022-12-04T07:36:49.252Z,3.35
2022-12-04T07:39:52.825Z,3.33
2022-12-04T07:42:55.900Z,3.28
2022-12-04T07:45:59.213Z,3.33
2022-12-04T07:49:02.022Z,3.40
2022-12-04T07:52:04.960Z,3.35
2022-12-04T07:55:09.296Z,3.38
2022-12-04T07:58:11.736Z,3.36
2022-12-04T08:01:24.100Z,3.44
2022-12-04T08:04:26.915Z,3.36
2022-12-04T08:07:29.556Z,3.38
2022-12-04T08:10:32.456Z,3.37
2022-12-04T08:13:35.119Z,3.40
2022-12-04T08:16:37.991Z,3.35
2022-12-04T08:19:41.061Z,3.46
2022-12-04T08:22:43.846Z,3.42
2022-12-04T08:25:46.319Z,3.48
2022-12-04T08:28:49.429Z,3.49
2022-12-04T08:31:51.953Z,3.57
2022-12-04T08:34:56.076Z,3.51
2022-12-04T08:37:58.662Z,3.55
2022-12-04T08:41:06.276Z,3.55
2022-12-04T08:44:09.495Z,3.49
2022-12-04T08:47:12.309Z,3.54
2022-12-04T08:50:15.274Z,3.54
2022-12-04T08:53:18.243Z,3.54
2022-12-04T08:56:20.740Z,3.51
2022-12-04T08:59:24.141Z,3.47
2022-12-04T09:02:26.949Z,3.53
2022-12-04T09:05:30.253Z,3.49
2022-12-04T09:08:33.941Z,3.48
2022-12-04T09:11:37.218Z,3.48
2022-12-04T09:14:39.887Z,3.55
2022-12-04T09:17:42.804Z,3.47
2022-12-04T09:20:45.674Z,3.53
2022-12-04T09:23:48.838Z,3.53
2022-12-04T09:26:51.577Z,3.54
2022-12-04T09:29:54.822Z,3.57
2022-12-04T09:32:57.799Z,3.61
2022-12-04T09:36:01.717Z,3.66
2022-12-04T09:39:04.669Z,3.73
2022-12-04T09:42:25.709Z,3.78
2022-12-04T09:45:28.934Z,3.75
2022-12-04T09:48:37.667Z,3.82
2022-12-04T09:51:41.222Z,3.80
2022-12-04T09:54:44.725Z,3.90
2022-12-04T09:57:49.707Z,3.92
2022-12-04T10:00:53.074Z,3.89
2022-12-04T10:04:01.114Z,3.97
2022-12-04T10:07:25.519Z,3.95
2022-12-04T10:10:38.268Z,3.93
2022-12-04T10:13:59.723Z,3.89
2022-12-04T10:17:02.633Z,3.90
2022-12-04T10:20:24.967Z,3.91
2022-12-04T10:23:58.770Z,3.92
2022-12-04T10:27:03.821Z,3.91
2022-12-04T10:30:28.414Z,3.88
2022-12-04T10:33:46.372Z,3.92
2022-12-04T10:36:54.513Z,3.96
2022-12-04T10:40:10.254Z,4.03
2022-12-04T10:43:40.478Z,4.06
2022-12-04T10:46:45.949Z,4.06
2022-12-04T10:49:54.565Z,4.14
2022-12-04T10:52:57.516Z,4.29
2022-12-04T10:56:14.532Z,4.22
2022-12-04T10:59:17.116Z,4.24
2022-12-04T11:02:25.917Z,4.29
2022-12-04T11:05:44.525Z,4.30
2022-12-04T11:08:50.606Z,4.29
2022-12-04T11:11:53.161Z,4.28
2022-12-04T11:15:08.683Z,4.35
2022-12-04T11:18:26.285Z,4.40
2022-12-04T11:21:32.229Z,4.42
2022-12-04T11:24:36.859Z,4.37
2022-12-04T11:27:39.808Z,4.40
2022-12-04T11:30:48.053Z,4.34
2022-12-04T11:33:54.803Z,4.38
2022-12-04T11:36:57.932Z,4.43
2022-12-04T11:40:04.126Z,4.50
2022-12-04T11:43:17.878Z,4.63
2022-12-04T11:46:23.374Z,4.53
2022-12-04T11:49:27.032Z,4.61
2022-12-04T11:52:42.053Z,4.67
2022-12-04T11:56:10.251Z,4.77
2022-12-04T11:59:41.222Z,4.76
2022-12-04T12:02:46.753Z,4.88
2022-12-04T12:06:07.880Z,4.90
2022-12-04T12:09:23.774Z,4.86
2022-12-04T12:12:38.685Z,4.81
2022-12-04T12:15:49.529Z,4.75
2022-12-04T12:19:02.124Z,4.75
2022-12-04T12:22:32.076Z,4.71
2022-12-04T12:26:13.310Z,4.74
2022-12-04T12:29:26.096Z,4.67
2022-12-04T12:32:35.759Z,4.69
2022-12-04T12:35:40.141Z,4.68
2022-12-04T12:38:49.414Z,4.66
2022-12-04T12:42:01.183Z,4.72
2022-12-04T12:45:13.372Z,4.69
2022-12-04T12:48:58.186Z,4.76
2022-12-04T12:52:05.546Z,4.74
2022-12-04T12:55:23.255Z,4.62
2022-12-04T12:58:41.983Z,4.69
2022-12-04T13:02:00.680Z,4.69
2022-12-04T13:05:07.963Z,4.67
2022-12-04T13:08:21.961Z,4.70
2022-12-04T13:11:26.349Z,4.63
2022-12-04T13:14:28.922Z,4.65
2022-12-04T13:17:35.272Z,4.64
2022-12-04T13:20:50.316Z,4.61
2022-12-04T13:24:23.501Z,4.64
2022-12-04T13:27:38.112Z,4.63
2022-12-04T13:30:51.699Z,4.57
2022-12-04T13:33:57.087Z,4.57
2022-12-04T13:37:18.408Z,4.57
2022-12-04T13:40:33.177Z,4.57
2022-12-04T13:43:44.669Z,4.59
2022-12-04T13:46:59.746Z,4.60
2022-12-04T13:50:12.992Z,4.58
2022-12-04T13:53:48.402Z,4.57
2022-12-04T13:56:57.079Z,4.55
2022-12-04T14:00:08.629Z,4.55
2022-12-04T14:03:33.556Z,4.50
2022-12-04T14:06:36.231Z,4.54
2022-12-04T14:09:44.331Z,4.51
2022-12-04T14:13:07.242Z,4.48
2022-12-04T14:16:17.948Z,4.48
2022-12-04T14:19:41.649Z,4.44
2022-12-04T14:22:44.624Z,4.34
2022-12-04T14:25:47.518Z,4.37
2022-12-04T14:28:50.538Z,4.37
2022-12-04T14:31:55.616Z,4.43
2022-12-04T14:34:58.762Z,4.33
2022-12-04T14:38:04.627Z,4.33
2022-12-04T14:41:07.614Z,4.31
2022-12-04T14:44:28.274Z,4.30
2022-12-04T14:47:43.603Z,4.22
2022-12-04T14:51:04.667Z,4.20
2022-12-04T14:54:26.874Z,4.25
2022-12-04T14:57:51.029Z,4.22
2022-12-04T15:00:55.443Z,4.21
2022-12-04T15:04:04.143Z,4.23
2022-12-04T15:07:07.053Z,4.25
2022-12-04T15:10:46.932Z,4.16
2022-12-04T15:13:49.782Z,4.16
2022-12-04T15:17:02.755Z,4.17
2022-12-04T15:20:16.407Z,4.11
2022-12-04T15:23:21.214Z,4.09
2022-12-04T15:26:24.388Z,4.07
2022-12-04T15:29:29.041Z,4.06
2022-12-04T15:32:32.614Z,4.14
2022-12-04T15:35:35.351Z,4.08
2022-12-04T15:38:39.608Z,4.09
2022-12-04T15:41:42.484Z,4.08
2022-12-04T15:44:54.798Z,4.01
2022-12-04T15:47:58.790Z,3.92
2022-12-04T15:51:05.114Z,3.87
2022-12-04T15:54:14.285Z,3.81
2022-12-04T15:57:25.812Z,3.76
2022-12-04T16:00:32.613Z,3.75
2022-12-04T16:03:41.744Z,3.71
2022-12-04T16:06:49.549Z,3.69
2022-12-04T16:10:01.084Z,3.66
2022-12-04T16:13:05.923Z,3.64
2022-12-04T16:16:13.157Z,3.64
2022-12-04T16:19:28.814Z,3.64
2022-12-04T16:22:32.037Z,3.65
2022-12-04T16:25:34.808Z,3.67
2022-12-04T16:28:38.940Z,3.65
2022-12-04T16:31:42.431Z,3.69
2022-12-04T16:34:47.976Z,3.70
2022-12-04T16:37:50.714Z,3.69
2022-12-04T16:40:53.512Z,3.69
2022-12-04T16:43:58.459Z,3.70
2022-12-04T16:47:01.661Z,3.73
2022-12-04T16:50:04.896Z,3.73
2022-12-04T16:53:08.027Z,3.74
2022-12-04T16:56:11.010Z,3.78
2022-12-04T16:59:14.081Z,3.77
2022-12-04T17:02:21.962Z,3.78
2022-12-04T17:05:29.553Z,3.78
2022-12-04T17:08:33.087Z,3.81
2022-12-04T17:11:37.004Z,3.83
2022-12-04T17:14:40.681Z,3.84
2022-12-04T17:17:43.503Z,3.87
2022-12-04T17:20:46.371Z,3.85
2022-12-04T17:23:49.336Z,3.84
2022-12-04T17:26:52.099Z,3.86
2022-12-04T17:29:56.097Z,3.88
2022-12-04T17:32:59.030Z,3.86
2022-12-04T17:36:03.518Z,3.88
2022-12-04T17:39:08.069Z,3.87
2022-12-04T17:42:11.057Z,3.89
2022-12-04T17:45:14.678Z,3.91
2022-12-04T17:48:18.918Z,3.91
2022-12-04T17:51:23.368Z,3.94
2022-12-04T17:54:26.175Z,3.94
2022-12-04T17:57:28.695Z,3.94
2022-12-04T18:00:31.785Z,3.95
2022-12-04T18:03:35.115Z,3.94
2022-12-04T18:06:40.622Z,3.96
2022-12-04T18:09:43.719Z,3.99
2022-12-04T18:12:46.490Z,3.99
2022-12-04T18:15:50.773Z,3.99
2022-12-04T18:18:55.322Z,3.99
2022-12-04T18:21:58.597Z,3.99
2022-12-04T18:25:01.030Z,4.01
2022-12-04T18:28:04.175Z,4.03
2022-12-04T18:31:08.007Z,4.02
2022-12-04T18:34:11.624Z,3.99
2022-12-04T18:37:14.322Z,4.02
2022-12-04T18:40:17.287Z,4.01
2022-12-04T18:43:21.214Z,4.04
2022-12-04T18:46:25.256Z,4.03
2022-12-04T18:49:29.518Z,4.03
2022-12-04T18:52:36.087Z,4.04
2022-12-04T18:55:38.849Z,4.05
2022-12-04T18:58:42.817Z,4.03
2022-12-04T19:01:46.106Z,4.04
2022-12-04T19:04:49.368Z,4.03
2022-12-04T19:07:53.700Z,4.03
2022-12-04T19:10:57.183Z,4.04
2022-12-04T19:14:00.590Z,4.05
2022-12-04T19:17:04.778Z,4.06
2022-12-04T19:20:08.294Z,4.07
2022-12-04T19:23:11.562Z,4.08
2022-12-04T19:26:14.419Z,4.07
2022-12-04T19:29:17.689Z,4.11
2022-12-04T19:32:21.585Z,4.11
2022-12-04T19:35:24.827Z,4.10
2022-12-04T19:38:28.437Z,4.10
2022-12-04T19:41:34.360Z,4.11
2022-12-04T19:44:48.478Z,4.14
2022-12-04T19:47:52.100Z,4.12
2022-12-04T19:50:54.852Z,4.11
2022-12-04T19:53:58.580Z,4.12
2022-12-04T19:57:01.533Z,4.13
2022-12-04T20:00:04.880Z,4.15
2022-12-04T20:03:14.573Z,4.15
2022-12-04T20:06:21.676Z,4.15
2022-12-04T20:09:25.347Z,4.17
2022-12-04T20:12:28.322Z,4.23
2022-12-04T20:15:32.983Z,4.19
2022-12-04T20:18:37.905Z,4.18
2022-12-04T20:21:40.800Z,4.21
2022-12-04T20:24:44.157Z,4.23
2022-12-04T20:27:47.059Z,4.24
2022-12-04T20:30:50.310Z,4.23
2022-12-04T20:33:54.848Z,4.25
2022-12-04T20:36:59.041Z,4.27
2022-12-04T20:40:03.730Z,4.27
2022-12-04T20:43:06.685Z,4.26
2022-12-04T20:46:31.710Z,4.28
2022-12-04T20:49:34.860Z,4.29
2022-12-04T20:52:38.122Z,4.31
2022-12-04T20:55:41.225Z,4.30
2022-12-04T20:58:44.387Z,4.33
2022-12-04T21:01:49.063Z,4.32
2022-12-04T21:04:52.034Z,4.35
2022-12-04T21:07:55.151Z,4.33
2022-12-04T21:10:58.301Z,4.32
2022-12-04T21:14:21.917Z,4.32
2022-12-04T21:17:24.598Z,4.35
2022-12-04T21:20:27.464Z,4.38
2022-12-04T21:23:30.206Z,4.37
2022-12-04T21:26:33.986Z,4.35
2022-12-04T21:29:38.556Z,4.35
2022-12-04T21:32:41.469Z,4.37
2022-12-04T21:35:44.084Z,4.35
2022-12-04T21:38:46.896Z,4.36
2022-12-04T21:42:09.313Z,4.36
2022-12-04T21:45:12.173Z,4.38
2022-12-04T21:48:14.630Z,4.39
2022-12-04T21:51:48.252Z,4.32
2022-12-04T21:54:40.271Z,4.32
2022-12-04T21:57:43.238Z,4.33
2022-12-04T22:00:45.810Z,4.34
2022-12-04T22:03:48.719Z,4.35
2022-12-04T22:06:51.283Z,4.31
2022-12-04T22:09:54.228Z,4.32
2022-12-04T22:12:56.770Z,4.33
2022-12-04T22:16:03.379Z,4.32
2022-12-04T22:19:06.243Z,4.32
2022-12-04T22:22:09.027Z,4.31
2022-12-04T22:25:11.459Z,4.31
2022-12-04T22:28:14.346Z,4.31
2022-12-04T22:31:19.224Z,4.32
2022-12-04T22:34:22.070Z,4.31
2022-12-04T22:37:24.664Z,4.33
2022-12-04T22:40:27.450Z,4.33
2022-12-04T22:43:32.422Z,4.34
2022-12-04T22:46:37.939Z,4.32
2022-12-04T22:49:40.963Z,4.36
2022-12-04T22:52:43.818Z,4.33
2022-12-04T22:55:46.346Z,4.41
2022-12-04T22:58:49.376Z,4.33
2022-12-04T23:01:51.877Z,4.37
2022-12-04T23:04:54.670Z,4.37
2022-12-04T23:07:57.225Z,4.35
2022-12-04T23:11:05.797Z,4.37
2022-12-04T23:14:09.616Z,4.41
2022-12-04T23:17:12.357Z,4.39
2022-12-04T23:20:14.891Z,4.41
2022-12-04T23:23:17.753Z,4.39
2022-12-04T23:26:23.312Z,4.37
2022-12-04T23:32:49.099Z,4.47
2022-12-04T23:35:56.618Z,4.37
2022-12-04T23:38:59.388Z,4.43
2022-12-04T23:42:02.153Z,4.44
2022-12-04T23:45:04.808Z,4.41
2022-12-04T23:48:07.781Z,4.43
2022-12-04T23:51:11.562Z,4.43
2022-12-04T23:54:14.433Z,4.33
2022-12-04T23:57:16.946Z,4.37
